sensor_id;sensor_type;location;lat;lon;timestamp;pressure;altitude;pressure_sealevel;temperature;humidity
16461;BME280;8341;42.048;24.650;2022-11-11T00:00:31;98307.50;;;11.39;74.31
16461;BME280;8341;42.048;24.650;2022-11-11T00:02:58;98298.13;;;11.49;74.32
16461;BME280;8341;42.048;24.650;2022-11-11T00:05:25;98308.09;;;11.43;74.34
16461;BME280;8341;42.048;24.650;2022-11-11T00:07:53;98303.13;;;11.51;74.20
16461;BME280;8341;42.048;24.650;2022-11-11T00:10:25;98310.88;;;11.52;73.80
16461;BME280;8341;42.048;24.650;2022-11-11T00:12:52;98303.13;;;11.51;73.61
16461;BME280;8341;42.048;24.650;2022-11-11T00:15:19;98298.72;;;11.44;73.88
16461;BME280;8341;42.048;24.650;2022-11-11T00:17:46;98305.25;;;11.47;73.91
16461;BME280;8341;42.048;24.650;2022-11-11T00:20:30;98298.72;;;11.44;74.17
16461;BME280;8341;42.048;24.650;2022-11-11T00:23:19;98295.97;;;11.44;74.45
16461;BME280;8341;42.048;24.650;2022-11-11T00:26:05;98299.47;;;11.45;73.96
16461;BME280;8341;42.048;24.650;2022-11-11T00:28:32;98297.34;;;11.40;74.42
16461;BME280;8341;42.048;24.650;2022-11-11T00:31:03;98303.84;;;11.33;74.76
16461;BME280;8341;42.048;24.650;2022-11-11T00:33:31;98300.97;;;11.37;74.47
16461;BME280;8341;42.048;24.650;2022-11-11T00:35:58;98297.19;;;11.34;74.50
16461;BME280;8341;42.048;24.650;2022-11-11T00:38:25;98292.16;;;11.32;75.13
16461;BME280;8341;42.048;24.650;2022-11-11T00:41:12;98290.28;;;11.11;75.92
16461;BME280;8341;42.048;24.650;2022-11-11T00:43:39;98289.88;;;11.22;76.59
16461;BME280;8341;42.048;24.650;2022-11-11T00:46:06;98298.66;;;11.17;76.13
16461;BME280;8341;42.048;24.650;2022-11-11T00:48:50;98297.41;;;11.09;77.20
16461;BME280;8341;42.048;24.650;2022-11-11T00:51:34;98293.25;;;11.04;77.10
16461;BME280;8341;42.048;24.650;2022-11-11T00:54:01;98292.78;;;10.97;77.17
16461;BME280;8341;42.048;24.650;2022-11-11T00:56:29;98287.19;;;11.00;76.74
16461;BME280;8341;42.048;24.650;2022-11-11T00:58:56;98291.22;;;10.87;77.46
16461;BME280;8341;42.048;24.650;2022-11-11T01:01:23;98292.16;;;10.93;77.15
16461;BME280;8341;42.048;24.650;2022-11-11T01:03:50;98290.63;;;10.92;77.18
16461;BME280;8341;42.048;24.650;2022-11-11T01:06:16;98282.03;;;10.93;76.88
16461;BME280;8341;42.048;24.650;2022-11-11T01:08:43;98281.56;;;10.95;77.08
16461;BME280;8341;42.048;24.650;2022-11-11T01:11:12;98281.72;;;10.91;77.14
16461;BME280;8341;42.048;24.650;2022-11-11T01:13:41;98284.56;;;10.88;77.44
16461;BME280;8341;42.048;24.650;2022-11-11T01:16:11;98275.19;;;10.89;78.37
16461;BME280;8341;42.048;24.650;2022-11-11T01:18:39;98277.72;;;10.83;78.19
16461;BME280;8341;42.048;24.650;2022-11-11T01:21:09;98283.19;;;10.83;78.72
16461;BME280;8341;42.048;24.650;2022-11-11T01:23:38;98273.28;;;10.77;79.03
16461;BME280;8341;42.048;24.650;2022-11-11T01:26:09;98282.06;;;10.72;79.53
16461;BME280;8341;42.048;24.650;2022-11-11T01:28:37;98273.94;;;10.81;79.20
16461;BME280;8341;42.048;24.650;2022-11-11T01:31:07;98271.31;;;10.77;79.38
16461;BME280;8341;42.048;24.650;2022-11-11T01:33:34;98269.72;;;10.89;78.53
16461;BME280;8341;42.048;24.650;2022-11-11T01:36:03;98266.66;;;10.87;79.01
16461;BME280;8341;42.048;24.650;2022-11-11T01:38:30;98268.19;;;10.88;79.09
16461;BME280;8341;42.048;24.650;2022-11-11T01:40:56;98272.31;;;10.92;79.11
16461;BME280;8341;42.048;24.650;2022-11-11T01:43:24;98272.19;;;11.05;77.77
16461;BME280;8341;42.048;24.650;2022-11-11T01:45:54;98256.59;;;11.05;77.69
16461;BME280;8341;42.048;24.650;2022-11-11T01:48:28;98259.06;;;11.21;77.51
16461;BME280;8341;42.048;24.650;2022-11-11T01:51:36;98257.72;;;11.35;77.12
16461;BME280;8341;42.048;24.650;2022-11-11T01:54:07;98260.59;;;11.41;75.94
16461;BME280;8341;42.048;24.650;2022-11-11T01:56:35;98265.16;;;11.44;75.67
16461;BME280;8341;42.048;24.650;2022-11-11T01:59:06;98268.97;;;11.46;75.07
16461;BME280;8341;42.048;24.650;2022-11-11T02:01:35;98275.06;;;11.50;75.17
16461;BME280;8341;42.048;24.650;2022-11-11T02:04:04;98274.13;;;11.53;75.43
16461;BME280;8341;42.048;24.650;2022-11-11T02:06:53;98279.47;;;11.57;75.28
16461;BME280;8341;42.048;24.650;2022-11-11T02:09:21;98282.50;;;11.59;75.06
16461;BME280;8341;42.048;24.650;2022-11-11T02:11:50;98285.69;;;11.57;75.05
16461;BME280;8341;42.048;24.650;2022-11-11T02:14:46;98284.03;;;11.60;74.85
16461;BME280;8341;42.048;24.650;2022-11-11T02:17:14;98283.88;;;11.63;74.17
16461;BME280;8341;42.048;24.650;2022-11-11T02:19:49;98287.06;;;11.62;74.54
16461;BME280;8341;42.048;24.650;2022-11-11T02:22:22;98282.97;;;11.57;75.09
16461;BME280;8341;42.048;24.650;2022-11-11T02:24:53;98291.16;;;11.66;74.87
16461;BME280;8341;42.048;24.650;2022-11-11T02:27:21;98287.41;;;11.73;74.50
16461;BME280;8341;42.048;24.650;2022-11-11T02:29:51;98284.50;;;11.76;74.32
16461;BME280;8341;42.048;24.650;2022-11-11T02:32:19;98292.88;;;11.82;74.30
16461;BME280;8341;42.048;24.650;2022-11-11T02:34:46;98295.31;;;11.71;74.94
16461;BME280;8341;42.048;24.650;2022-11-11T02:37:13;98292.13;;;11.72;75.14
16461;BME280;8341;42.048;24.650;2022-11-11T02:39:45;98298.19;;;11.76;76.05
16461;BME280;8341;42.048;24.650;2022-11-11T02:42:15;98293.44;;;11.68;76.04
16461;BME280;8341;42.048;24.650;2022-11-11T02:44:43;98292.72;;;11.76;75.56
16461;BME280;8341;42.048;24.650;2022-11-11T02:47:10;98292.72;;;11.76;75.50
16461;BME280;8341;42.048;24.650;2022-11-11T02:49:36;98293.03;;;11.69;75.63
16461;BME280;8341;42.048;24.650;2022-11-11T02:52:03;98299.25;;;11.70;75.83
16461;BME280;8341;42.048;24.650;2022-11-11T02:54:30;98292.41;;;11.74;76.09
16461;BME280;8341;42.048;24.650;2022-11-11T02:56:57;98293.03;;;11.78;75.50
16461;BME280;8341;42.048;24.650;2022-11-11T02:59:35;98294.72;;;11.76;76.17
16461;BME280;8341;42.048;24.650;2022-11-11T03:02:02;98291.38;;;11.81;76.66
16461;BME280;8341;42.048;24.650;2022-11-11T03:04:29;98291.50;;;11.86;76.56
16461;BME280;8341;42.048;24.650;2022-11-11T03:06:56;98291.22;;;11.93;76.21
16461;BME280;8341;42.048;24.650;2022-11-11T03:09:23;98292.59;;;11.98;75.93
16461;BME280;8341;42.048;24.650;2022-11-11T03:11:50;98305.50;;;12.07;75.62
16461;BME280;8341;42.048;24.650;2022-11-11T03:14:17;98299.09;;;12.10;75.67
16461;BME280;8341;42.048;24.650;2022-11-11T03:16:45;98296.97;;;12.23;75.12
16461;BME280;8341;42.048;24.650;2022-11-11T03:19:29;98299.13;;;12.19;75.66
16461;BME280;8341;42.048;24.650;2022-11-11T03:21:57;98304.13;;;12.20;76.06
16461;BME280;8341;42.048;24.650;2022-11-11T03:24:24;98298.94;;;12.31;75.94
16461;BME280;8341;42.048;24.650;2022-11-11T03:27:11;98305.47;;;12.34;75.89
16461;BME280;8341;42.048;24.650;2022-11-11T03:29:37;98294.06;;;12.35;75.86
16461;BME280;8341;42.048;24.650;2022-11-11T03:32:06;98298.47;;;12.42;75.08
16461;BME280;8341;42.048;24.650;2022-11-11T03:34:33;98290.13;;;12.36;75.71
16461;BME280;8341;42.048;24.650;2022-11-11T03:37:00;98297.09;;;12.46;75.63
16461;BME280;8341;42.048;24.650;2022-11-11T03:39:44;98298.16;;;12.49;75.23
16461;BME280;8341;42.048;24.650;2022-11-11T03:42:11;98299.38;;;12.48;75.15
16461;BME280;8341;42.048;24.650;2022-11-11T03:44:37;98294.22;;;12.50;75.33
16461;BME280;8341;42.048;24.650;2022-11-11T03:47:06;98292.41;;;12.47;75.54
16461;BME280;8341;42.048;24.650;2022-11-11T03:49:32;98288.31;;;12.42;75.81
16461;BME280;8341;42.048;24.650;2022-11-11T03:51:59;98285.88;;;12.44;75.70
16461;BME280;8341;42.048;24.650;2022-11-11T03:54:26;98291.50;;;12.41;75.69
16461;BME280;8341;42.048;24.650;2022-11-11T03:56:53;98297.28;;;12.34;76.14
16461;BME280;8341;42.048;24.650;2022-11-11T03:59:41;98294.56;;;12.25;77.25
16461;BME280;8341;42.048;24.650;2022-11-11T04:02:11;98286.81;;;12.23;77.40
16461;BME280;8341;42.048;24.650;2022-11-11T04:04:56;98301.38;;;12.20;77.58
16461;BME280;8341;42.048;24.650;2022-11-11T04:07:39;98294.84;;;12.18;78.08
16461;BME280;8341;42.048;24.650;2022-11-11T04:10:24;98298.53;;;11.97;79.69
16461;BME280;8341;42.048;24.650;2022-11-11T04:12:51;98293.81;;;12.06;79.46
16461;BME280;8341;42.048;24.650;2022-11-11T04:15:36;98291.50;;;12.05;79.60
16461;BME280;8341;42.048;24.650;2022-11-11T04:18:21;98293.81;;;12.06;79.84
16461;BME280;8341;42.048;24.650;2022-11-11T04:21:09;98295.63;;;12.00;79.92
16461;BME280;8341;42.048;24.650;2022-11-11T04:23:53;98300.63;;;12.11;80.02
16461;BME280;8341;42.048;24.650;2022-11-11T04:26:20;98308.53;;;12.00;80.06
16461;BME280;8341;42.048;24.650;2022-11-11T04:28:46;98300.94;;;12.04;80.08
16461;BME280;8341;42.048;24.650;2022-11-11T04:31:30;98303.06;;;12.09;80.12
16461;BME280;8341;42.048;24.650;2022-11-11T04:33:58;98314.16;;;12.23;79.37
16461;BME280;8341;42.048;24.650;2022-11-11T04:36:24;98308.38;;;12.21;79.23
16461;BME280;8341;42.048;24.650;2022-11-11T04:38:51;98312.91;;;12.33;78.77
16461;BME280;8341;42.048;24.650;2022-11-11T04:41:35;98318.88;;;12.32;78.77
16461;BME280;8341;42.048;24.650;2022-11-11T04:44:03;98315.78;;;12.57;78.22
16461;BME280;8341;42.048;24.650;2022-11-11T04:46:47;98326.44;;;12.55;77.48
16461;BME280;8341;42.048;24.650;2022-11-11T04:49:15;98322.03;;;12.57;77.99
16461;BME280;8341;42.048;24.650;2022-11-11T04:51:42;98330.38;;;12.54;77.74
16461;BME280;8341;42.048;24.650;2022-11-11T04:54:26;98314.13;;;12.41;78.09
16461;BME280;8341;42.048;24.650;2022-11-11T04:56:52;98318.41;;;12.33;79.15
16461;BME280;8341;42.048;24.650;2022-11-11T04:59:19;98321.75;;;12.37;79.70
16461;BME280;8341;42.048;24.650;2022-11-11T05:01:45;98327.66;;;12.45;79.41
16461;BME280;8341;42.048;24.650;2022-11-11T05:04:31;98332.66;;;12.46;78.65
16461;BME280;8341;42.048;24.650;2022-11-11T05:12:08;98324.19;;;12.26;79.90
16461;BME280;8341;42.048;24.650;2022-11-11T05:14:35;98328.28;;;12.31;80.40
16461;BME280;8341;42.048;24.650;2022-11-11T05:17:19;98323.56;;;12.31;80.75
16461;BME280;8341;42.048;24.650;2022-11-11T05:20:06;98329.19;;;12.37;81.31
16461;BME280;8341;42.048;24.650;2022-11-11T05:22:51;98335.25;;;12.41;79.74
16461;BME280;8341;42.048;24.650;2022-11-11T05:25:18;98330.53;;;12.41;79.88
16461;BME280;8341;42.048;24.650;2022-11-11T05:27:50;98326.59;;;12.42;79.31
16461;BME280;8341;42.048;24.650;2022-11-11T05:30:16;98340.41;;;12.48;79.41
16461;BME280;8341;42.048;24.650;2022-11-11T05:32:43;98335.69;;;12.48;79.37
16461;BME280;8341;42.048;24.650;2022-11-11T05:35:12;98348.94;;;12.41;79.78
16461;BME280;8341;42.048;24.650;2022-11-11T05:37:40;98344.34;;;12.56;79.30
16461;BME280;8341;42.048;24.650;2022-11-11T05:40:08;98343.75;;;12.61;78.88
16461;BME280;8341;42.048;24.650;2022-11-11T05:42:35;98345.84;;;12.66;78.87
16461;BME280;8341;42.048;24.650;2022-11-11T05:45:06;98348.16;;;12.68;78.57
16461;BME280;8341;42.048;24.650;2022-11-11T05:47:33;98347.22;;;12.80;77.90
16461;BME280;8341;42.048;24.650;2022-11-11T05:50:00;98348.44;;;12.79;77.62
16461;BME280;8341;42.048;24.650;2022-11-11T05:52:28;98347.06;;;12.83;78.00
16461;BME280;8341;42.048;24.650;2022-11-11T05:54:56;98350.53;;;12.93;77.40
16461;BME280;8341;42.048;24.650;2022-11-11T05:57:23;98355.84;;;12.96;77.09
16461;BME280;8341;42.048;24.650;2022-11-11T05:59:49;98348.84;;;13.04;76.63
16461;BME280;8341;42.048;24.650;2022-11-11T06:02:16;98357.81;;;13.14;76.40
16461;BME280;8341;42.048;24.650;2022-11-11T06:04:43;98338.50;;;13.08;76.28
16461;BME280;8341;42.048;24.650;2022-11-11T06:07:10;98357.13;;;13.28;75.75
16461;BME280;8341;42.048;24.650;2022-11-11T06:09:38;98363.94;;;13.42;75.36
16461;BME280;8341;42.048;24.650;2022-11-11T06:12:05;98366.59;;;13.51;74.31
16461;BME280;8341;42.048;24.650;2022-11-11T06:14:31;98371.78;;;13.58;73.99
16461;BME280;8341;42.048;24.650;2022-11-11T06:16:58;98367.16;;;13.64;74.48
16461;BME280;8341;42.048;24.650;2022-11-11T06:19:25;98368.75;;;13.79;73.87
16461;BME280;8341;42.048;24.650;2022-11-11T06:21:52;98369.75;;;13.91;73.35
16461;BME280;8341;42.048;24.650;2022-11-11T06:24:26;98371.91;;;13.87;72.91
16461;BME280;8341;42.048;24.650;2022-11-11T06:26:54;98361.06;;;13.93;72.54
16461;BME280;8341;42.048;24.650;2022-11-11T06:29:20;98376.16;;;14.12;72.06
16461;BME280;8341;42.048;24.650;2022-11-11T06:31:47;98378.19;;;14.26;70.97
16461;BME280;8341;42.048;24.650;2022-11-11T06:34:14;98385.84;;;14.46;71.04
16461;BME280;8341;42.048;24.650;2022-11-11T06:36:41;98381.44;;;14.63;70.64
16461;BME280;8341;42.048;24.650;2022-11-11T06:39:08;98383.16;;;14.75;69.93
16461;BME280;8341;42.048;24.650;2022-11-11T06:41:34;98384.41;;;14.88;68.93
16461;BME280;8341;42.048;24.650;2022-11-11T06:44:03;98386.47;;;14.93;68.71
16461;BME280;8341;42.048;24.650;2022-11-11T06:46:30;98394.06;;;14.98;67.59
16461;BME280;8341;42.048;24.650;2022-11-11T06:48:57;98392.53;;;14.97;67.60
16461;BME280;8341;42.048;24.650;2022-11-11T06:51:23;98396.03;;;15.13;67.44
16461;BME280;8341;42.048;24.650;2022-11-11T06:53:50;98393.38;;;15.18;67.61
16461;BME280;8341;42.048;24.650;2022-11-11T06:56:17;98409.59;;;15.16;66.65
16461;BME280;8341;42.048;24.650;2022-11-11T06:58:44;98403.44;;;15.21;65.56
16461;BME280;8341;42.048;24.650;2022-11-11T07:01:12;98409.97;;;15.24;64.81
16461;BME280;8341;42.048;24.650;2022-11-11T07:03:39;98400.47;;;15.10;63.83
16461;BME280;8341;42.048;24.650;2022-11-11T07:06:06;98404.66;;;15.05;64.76
16461;BME280;8341;42.048;24.650;2022-11-11T07:08:33;98405.03;;;14.98;64.42
16461;BME280;8341;42.048;24.650;2022-11-11T07:11:00;98408.72;;;15.10;64.93
16461;BME280;8341;42.048;24.650;2022-11-11T07:13:27;98408.66;;;15.19;64.82
16461;BME280;8341;42.048;24.650;2022-11-11T07:15:54;98404.84;;;15.31;64.01
16461;BME280;8341;42.048;24.650;2022-11-11T07:18:22;98398.69;;;15.51;63.41
16461;BME280;8341;42.048;24.650;2022-11-11T07:20:49;98403.31;;;15.59;62.70
16461;BME280;8341;42.048;24.650;2022-11-11T07:23:15;98410.09;;;15.79;63.10
16461;BME280;8341;42.048;24.650;2022-11-11T07:25:42;98399.53;;;15.92;62.52
16461;BME280;8341;42.048;24.650;2022-11-11T07:28:10;98401.88;;;15.99;61.72
16461;BME280;8341;42.048;24.650;2022-11-11T07:30:37;98397.34;;;16.16;60.83
16461;BME280;8341;42.048;24.650;2022-11-11T07:33:03;98386.28;;;16.31;60.18
16461;BME280;8341;42.048;24.650;2022-11-11T07:35:31;98385.69;;;16.47;60.37
16461;BME280;8341;42.048;24.650;2022-11-11T07:37:58;98393.75;;;16.50;60.10
16461;BME280;8341;42.048;24.650;2022-11-11T07:40:25;98402.44;;;16.63;59.18
16461;BME280;8341;42.048;24.650;2022-11-11T07:42:52;98411.03;;;16.71;59.11
16461;BME280;8341;42.048;24.650;2022-11-11T07:45:18;98411.03;;;16.71;58.13
16461;BME280;8341;42.048;24.650;2022-11-11T07:47:45;98423.84;;;16.74;58.26
16461;BME280;8341;42.048;24.650;2022-11-11T07:50:13;98422.81;;;16.71;57.52
16461;BME280;8341;42.048;24.650;2022-11-11T07:52:47;98427.25;;;16.49;58.88
16461;BME280;8341;42.048;24.650;2022-11-11T07:55:14;98435.19;;;16.41;58.49
16461;BME280;8341;42.048;24.650;2022-11-11T07:57:40;98430.38;;;16.36;59.50
16461;BME280;8341;42.048;24.650;2022-11-11T08:00:08;98420.97;;;16.22;59.46
16461;BME280;8341;42.048;24.650;2022-11-11T08:02:35;98428.44;;;16.02;59.76
16461;BME280;8341;42.048;24.650;2022-11-11T08:05:02;98428.94;;;15.86;61.05
16461;BME280;8341;42.048;24.650;2022-11-11T08:07:29;98428.78;;;15.75;61.71
16461;BME280;8341;42.048;24.650;2022-11-11T08:09:57;98434.28;;;15.75;60.98
16461;BME280;8341;42.048;24.650;2022-11-11T08:12:24;98431.25;;;15.73;61.79
16461;BME280;8341;42.048;24.650;2022-11-11T08:15:08;98439.16;;;15.50;61.92
16461;BME280;8341;42.048;24.650;2022-11-11T08:17:36;98433.00;;;15.55;62.25
16461;BME280;8341;42.048;24.650;2022-11-11T08:20:05;98436.16;;;15.83;61.27
16461;BME280;8341;42.048;24.650;2022-11-11T08:22:35;98435.22;;;15.86;61.25
16461;BME280;8341;42.048;24.650;2022-11-11T08:25:05;98435.22;;;15.86;61.77
16461;BME280;8341;42.048;24.650;2022-11-11T08:27:32;98428.53;;;15.93;61.16
16461;BME280;8341;42.048;24.650;2022-11-11T08:29:58;98428.78;;;16.09;60.95
16461;BME280;8341;42.048;24.650;2022-11-11T08:32:25;98431.47;;;16.24;60.27
16461;BME280;8341;42.048;24.650;2022-11-11T08:34:52;98439.72;;;16.24;60.44
16461;BME280;8341;42.048;24.650;2022-11-11T08:37:19;98432.56;;;16.12;60.55
16461;BME280;8341;42.048;24.650;2022-11-11T08:39:45;98434.84;;;16.13;60.27
16461;BME280;8341;42.048;24.650;2022-11-11T08:42:14;98431.06;;;16.31;59.60
16461;BME280;8341;42.048;24.650;2022-11-11T08:44:40;98443.66;;;16.38;59.35
16461;BME280;8341;42.048;24.650;2022-11-11T08:47:07;98433.81;;;16.31;58.70
16461;BME280;8341;42.048;24.650;2022-11-11T08:49:34;98439.03;;;16.49;58.45
16461;BME280;8341;42.048;24.650;2022-11-11T08:52:01;98451.00;;;16.46;58.85
16461;BME280;8341;42.048;24.650;2022-11-11T08:54:27;98439.03;;;16.29;58.88
16461;BME280;8341;42.048;24.650;2022-11-11T08:56:54;98452.97;;;16.40;58.97
16461;BME280;8341;42.048;24.650;2022-11-11T08:59:23;98453.66;;;16.35;59.00
16461;BME280;8341;42.048;24.650;2022-11-11T09:01:49;98461.31;;;16.11;60.16
16461;BME280;8341;42.048;24.650;2022-11-11T09:04:16;98457.09;;;15.95;60.91
16461;BME280;8341;42.048;24.650;2022-11-11T09:06:43;98453.72;;;15.86;60.90
16461;BME280;8341;42.048;24.650;2022-11-11T09:09:12;98450.88;;;15.80;61.64
16461;BME280;8341;42.048;24.650;2022-11-11T09:11:39;98453.06;;;15.61;63.31
16461;BME280;8341;42.048;24.650;2022-11-11T09:14:06;98455.19;;;15.52;63.56
16461;BME280;8341;42.048;24.650;2022-11-11T09:16:34;98455.53;;;15.45;63.68
16461;BME280;8341;42.048;24.650;2022-11-11T09:19:01;98446.84;;;15.46;63.71
16461;BME280;8341;42.048;24.650;2022-11-11T09:21:27;98452.69;;;15.39;63.64
16461;BME280;8341;42.048;24.650;2022-11-11T09:23:54;98453.38;;;15.34;64.07
16461;BME280;8341;42.048;24.650;2022-11-11T09:26:21;98454.41;;;15.22;65.37
16461;BME280;8341;42.048;24.650;2022-11-11T09:28:48;98458.31;;;15.30;65.04
16461;BME280;8341;42.048;24.650;2022-11-11T09:31:14;98457.16;;;15.22;65.55
16461;BME280;8341;42.048;24.650;2022-11-11T09:33:43;98462.34;;;15.20;66.02
16461;BME280;8341;42.048;24.650;2022-11-11T09:36:09;98460.00;;;15.13;66.32
16461;BME280;8341;42.048;24.650;2022-11-11T09:38:36;98459.81;;;15.31;65.37
16461;BME280;8341;42.048;24.650;2022-11-11T09:41:14;98457.44;;;15.24;65.61
16461;BME280;8341;42.048;24.650;2022-11-11T09:43:50;98461.78;;;15.16;66.83
16461;BME280;8341;42.048;24.650;2022-11-11T09:46:31;98465.31;;;15.17;66.68
16461;BME280;8341;42.048;24.650;2022-11-11T09:52:02;98454.38;;;15.07;67.83
16461;BME280;8341;42.048;24.650;2022-11-11T09:54:35;98448.63;;;15.20;67.32
16461;BME280;8341;42.048;24.650;2022-11-11T09:57:08;98448.81;;;15.17;67.39
16461;BME280;8341;42.048;24.650;2022-11-11T09:59:42;98444.81;;;15.03;68.04
16461;BME280;8341;42.048;24.650;2022-11-11T10:02:18;98449.94;;;14.95;68.98
16461;BME280;8341;42.048;24.650;2022-11-11T10:04:54;98457.31;;;14.89;69.15
16461;BME280;8341;42.048;24.650;2022-11-11T10:07:30;98461.69;;;14.96;69.18
16461;BME280;8341;42.048;24.650;2022-11-11T10:10:10;98455.44;;;14.95;69.27
16461;BME280;8341;42.048;24.650;2022-11-11T10:12:43;98455.91;;;14.94;69.45
16461;BME280;8341;42.048;24.650;2022-11-11T10:15:13;98453.16;;;14.94;69.34
16461;BME280;8341;42.048;24.650;2022-11-11T10:17:48;98461.69;;;14.96;69.67
16461;BME280;8341;42.048;24.650;2022-11-11T10:20:19;98451.56;;;15.02;69.12
16461;BME280;8341;42.048;24.650;2022-11-11T10:22:53;98467.38;;;15.07;69.10
16461;BME280;8341;42.048;24.650;2022-11-11T10:25:25;98464.91;;;15.09;69.24
16461;BME280;8341;42.048;24.650;2022-11-11T10:27:54;98469.00;;;15.14;69.30
16461;BME280;8341;42.048;24.650;2022-11-11T10:30:24;98465.09;;;15.05;69.50
16461;BME280;8341;42.048;24.650;2022-11-11T10:32:54;98460.09;;;15.04;69.23
16461;BME280;8341;42.048;24.650;2022-11-11T10:35:24;98447.06;;;14.90;70.08
16461;BME280;8341;42.048;24.650;2022-11-11T10:37:59;98458.28;;;15.01;69.58
16461;BME280;8341;42.048;24.650;2022-11-11T10:40:36;98467.94;;;15.11;69.41
16461;BME280;8341;42.048;24.650;2022-11-11T10:43:04;98470.97;;;15.13;69.10
16461;BME280;8341;42.048;24.650;2022-11-11T10:45:38;98470.41;;;15.09;68.75
16461;BME280;8341;42.048;24.650;2022-11-11T10:48:09;98458.84;;;15.05;68.14
16461;BME280;8341;42.048;24.650;2022-11-11T10:50:40;98470.41;;;15.09;68.11
16461;BME280;8341;42.048;24.650;2022-11-11T10:53:16;98472.13;;;15.21;67.49
16461;BME280;8341;42.048;24.650;2022-11-11T10:55:49;98468.06;;;15.31;66.86
16461;BME280;8341;42.048;24.650;2022-11-11T10:58:23;98466.56;;;15.30;66.83
16461;BME280;8341;42.048;24.650;2022-11-11T11:00:52;98460.75;;;15.28;67.44
16461;BME280;8341;42.048;24.650;2022-11-11T11:03:23;98459.81;;;15.31;66.54
16461;BME280;8341;42.048;24.650;2022-11-11T11:05:55;98462.00;;;15.27;66.68
16461;BME280;8341;42.048;24.650;2022-11-11T11:08:29;98460.38;;;15.21;67.16
16461;BME280;8341;42.048;24.650;2022-11-11T11:10:57;98456.69;;;15.09;67.81
16461;BME280;8341;42.048;24.650;2022-11-11T11:13:31;98457.53;;;15.15;67.65
16461;BME280;8341;42.048;24.650;2022-11-11T11:16:04;98456.09;;;15.05;68.65
16461;BME280;8341;42.048;24.650;2022-11-11T11:18:32;98460.53;;;15.02;68.72
16461;BME280;8341;42.048;24.650;2022-11-11T11:21:01;98462.44;;;14.96;69.50
16461;BME280;8341;42.048;24.650;2022-11-11T11:23:37;98465.09;;;14.91;70.16
16461;BME280;8341;42.048;24.650;2022-11-11T11:26:04;98460.34;;;14.91;70.43
16461;BME280;8341;42.048;24.650;2022-11-11T11:28:32;98456.25;;;14.87;70.09
16461;BME280;8341;42.048;24.650;2022-11-11T11:31:01;98451.78;;;14.75;70.80
16461;BME280;8341;42.048;24.650;2022-11-11T11:33:49;98456.47;;;14.83;70.57
16461;BME280;8341;42.048;24.650;2022-11-11T11:36:17;98455.41;;;14.81;70.53
16461;BME280;8341;42.048;24.650;2022-11-11T11:38:46;98451.06;;;14.89;70.45
16461;BME280;8341;42.048;24.650;2022-11-11T11:41:15;98448.88;;;14.78;70.43
16461;BME280;8341;42.048;24.650;2022-11-11T11:43:43;98449.91;;;14.81;70.88
16461;BME280;8341;42.048;24.650;2022-11-11T11:46:18;98443.56;;;14.89;70.86
16461;BME280;8341;42.048;24.650;2022-11-11T11:48:57;98438.66;;;14.93;70.63
16461;BME280;8341;42.048;24.650;2022-11-11T11:51:34;98436.31;;;15.01;69.74
16461;BME280;8341;42.048;24.650;2022-11-11T11:56:59;98440.38;;;14.91;69.93
16461;BME280;8341;42.048;24.650;2022-11-11T11:59:32;98442.06;;;15.03;68.81
16461;BME280;8341;42.048;24.650;2022-11-11T12:02:08;98442.72;;;14.83;69.72
16461;BME280;8341;42.048;24.650;2022-11-11T12:05:00;98438.16;;;14.66;70.23
16461;BME280;8341;42.048;24.650;2022-11-11T12:07:46;98443.81;;;14.62;70.26
16461;BME280;8341;42.048;24.650;2022-11-11T12:10:33;98442.13;;;14.65;70.22
16461;BME280;8341;42.048;24.650;2022-11-11T12:13:07;98436.06;;;14.61;70.09
16461;BME280;8341;42.048;24.650;2022-11-11T12:15:41;98439.84;;;14.63;69.97
16461;BME280;8341;42.048;24.650;2022-11-11T12:18:21;98434.41;;;14.54;69.98
16461;BME280;8341;42.048;24.650;2022-11-11T12:20:57;98438.69;;;14.55;69.94
16461;BME280;8341;42.048;24.650;2022-11-11T12:23:53;98428.28;;;14.59;69.53
16461;BME280;8341;42.048;24.650;2022-11-11T12:26:30;98430.56;;;14.61;69.64
16461;BME280;8341;42.048;24.650;2022-11-11T12:29:23;98434.69;;;14.56;69.85
16461;BME280;8341;42.048;24.650;2022-11-11T12:32:03;98428.66;;;14.52;69.47
16461;BME280;8341;42.048;24.650;2022-11-11T12:34:42;98426.66;;;14.53;69.39
16461;BME280;8341;42.048;24.650;2022-11-11T12:37:19;98425.72;;;14.56;69.77
16461;BME280;8341;42.048;24.650;2022-11-11T12:40:06;98429.97;;;14.57;69.60
16461;BME280;8341;42.048;24.650;2022-11-11T12:42:52;98432.59;;;14.51;69.32
16461;BME280;8341;42.048;24.650;2022-11-11T12:45:26;98434.53;;;14.60;69.38
16461;BME280;8341;42.048;24.650;2022-11-11T12:48:03;98440.78;;;14.60;69.52
16461;BME280;8341;42.048;24.650;2022-11-11T12:50:37;98443.03;;;14.62;69.32
16461;BME280;8341;42.048;24.650;2022-11-11T12:53:16;98440.84;;;14.51;69.75
16461;BME280;8341;42.048;24.650;2022-11-11T12:55:50;98447.75;;;14.47;70.03
16461;BME280;8341;42.048;24.650;2022-11-11T12:58:29;98438.28;;;14.48;69.84
16461;BME280;8341;42.048;24.650;2022-11-11T18:22:04;98559.31;;;12.66;100.00
16461;BME280;8341;42.048;24.650;2022-11-11T18:24:31;98557.34;;;12.67;100.00
16461;BME280;8341;42.048;24.650;2022-11-11T18:26:57;98557.19;;;12.61;100.00
16461;BME280;8341;42.048;24.650;2022-11-11T18:29:24;98561.31;;;12.66;100.00
16461;BME280;8341;42.048;24.650;2022-11-11T18:31:53;98550.34;;;12.56;100.00
16461;BME280;8341;42.048;24.650;2022-11-11T18:34:20;98554.03;;;12.63;100.00
16461;BME280;8341;42.048;24.650;2022-11-11T18:36:46;98551.13;;;12.57;100.00
16461;BME280;8341;42.048;24.650;2022-11-11T18:39:15;98554.44;;;12.52;100.00
16461;BME280;8341;42.048;24.650;2022-11-11T18:41:42;98547.31;;;12.54;100.00
16461;BME280;8341;42.048;24.650;2022-11-11T18:44:09;98549.59;;;12.56;100.00
16461;BME280;8341;42.048;24.650;2022-11-11T18:46:36;98548.06;;;12.55;100.00
16461;BME280;8341;42.048;24.650;2022-11-11T18:49:04;98556.00;;;12.53;100.00
16461;BME280;8341;42.048;24.650;2022-11-11T18:51:32;98550.78;;;12.46;100.00